Time;durP1;ratioP1;P1;durP2;ratioP2;P2;SDS_P1;SDS_P2;PMS_P1;PMS_P2;Temp;Humidity;BMP_temperature;BMP_pressure;BME280_temperature;BME280_humidity;BME280_pressure;Samples;Min_cycle;Max_cycle;Signal;HPM_P1;HPM_P2
2021/08/07 00:01:23;;;;;;;2.20;2.00;;;15.10;86.30;;;;;;5010279;28;20044;-64
2021/08/07 00:03:49;;;;;;;2.47;1.63;;;15.10;86.30;;;;;;5017255;28;20100;-63
2021/08/07 00:06:14;;;;;;;2.75;1.40;;;15.00;86.30;;;;;;5011685;28;20037;-64
2021/08/07 00:08:40;;;;;;;2.17;1.80;;;15.10;86.10;;;;;;5011775;28;20036;-64
2021/08/07 00:11:06;;;;;;;5.78;1.85;;;15.10;86.10;;;;;;5010247;28;20033;-64
2021/08/07 00:13:32;;;;;;;1.88;1.63;;;15.00;85.70;;;;;;5009861;28;20040;-64
2021/08/07 00:15:57;;;;;;;2.17;1.58;;;14.90;86.60;;;;;;5015744;28;20457;-64
2021/08/07 00:18:23;;;;;;;1.63;1.35;;;14.90;86.30;;;;;;5024545;28;20040;-63
2021/08/07 00:20:49;;;;;;;2.65;1.80;;;14.90;86.20;;;;;;5009924;28;20030;-63
2021/08/07 00:23:14;;;;;;;1.60;1.40;;;14.90;86.40;;;;;;5010083;28;20057;-63
2021/08/07 00:25:40;;;;;;;2.17;1.50;;;14.90;86.20;;;;;;5008537;28;20451;-63
2021/08/07 00:28:06;;;;;;;2.53;1.75;;;14.90;86.00;;;;;;5010537;28;20022;-64
2021/08/07 00:30:31;;;;;;;2.78;1.60;;;14.90;86.30;;;;;;5011743;28;20109;-63
2021/08/07 00:32:57;;;;;;;1.83;1.38;;;14.80;86.10;;;;;;5011631;28;20084;-63
2021/08/07 00:35:23;;;;;;;4.63;1.75;;;14.90;86.10;;;;;;5011743;28;20073;-64
2021/08/07 00:37:48;;;;;;;1.50;1.40;;;14.90;86.60;;;;;;4998347;28;20032;-63
2021/08/07 00:40:14;;;;;;;2.35;1.30;;;14.80;86.70;;;;;;5010772;28;20105;-64
2021/08/07 00:42:40;;;;;;;2.65;1.38;;;14.80;86.50;;;;;;5019864;28;20030;-63
2021/08/07 00:45:07;;;;;;;1.40;1.30;;;14.80;86.50;;;;;;5014542;28;20034;-63
2021/08/07 00:47:33;;;;;;;2.22;1.30;;;14.80;86.30;;;;;;5035212;28;20041;-64
2021/08/07 00:49:59;;;;;;;2.03;1.60;;;14.80;87.00;;;;;;5012364;28;20407;-64
2021/08/07 00:52:24;;;;;;;3.22;1.55;;;14.70;87.00;;;;;;5022352;28;20116;-64
2021/08/07 00:54:52;;;;;;;1.30;1.20;;;14.70;87.10;;;;;;5013784;28;20489;-64
2021/08/07 00:57:18;;;;;;;1.73;1.63;;;14.70;87.50;;;;;;5002528;28;20021;-64
2021/08/07 00:59:44;;;;;;;2.17;1.40;;;14.70;87.00;;;;;;5016243;28;20376;-64
2021/08/07 01:02:18;;;;;;;1.50;1.40;;;14.70;87.00;;;;;;5021625;28;20030;-64
2021/08/07 01:04:46;;;;;;;3.25;1.80;;;14.70;86.80;;;;;;5013822;28;20042;-64
2021/08/07 01:07:29;;;;;;;2.53;1.58;;;14.70;86.90;;;;;;5021861;28;20045;-64
2021/08/07 01:10:11;;;;;;;6.18;1.58;;;14.70;86.90;;;;;;5018606;28;20022;-64
2021/08/07 01:13:09;;;;;;;1.67;1.52;;;14.70;87.00;;;;;;5021464;28;20033;-64
2021/08/07 01:15:38;;;;;;;;;;;14.70;87.60;;;;;;5015472;28;20050;-64
2021/08/07 01:18:08;;;;;;;2.03;1.70;;;14.70;87.60;;;;;;5035486;28;19955;-64
2021/08/07 01:20:41;;;;;;;2.10;1.90;;;14.70;87.30;;;;;;5015277;28;20033;-64
2021/08/07 01:23:22;;;;;;;2.10;1.90;;;14.70;87.50;;;;;;5008398;28;20029;-63
2021/08/07 01:25:56;;;;;;;3.22;2.10;;;14.70;87.70;;;;;;5011585;28;20038;-63
2021/08/07 01:28:28;;;;;;;2.53;1.92;;;14.60;88.50;;;;;;5019943;28;20489;-64
2021/08/07 01:30:54;;;;;;;2.30;1.90;;;14.60;88.70;;;;;;5019987;28;20061;-64
2021/08/07 01:33:24;;;;;;;2.05;1.67;;;14.70;88.30;;;;;;5038041;28;20343;-64
2021/08/07 01:35:51;;;;;;;2.80;2.03;;;14.70;88.20;;;;;;5035026;28;20104;-64
2021/08/07 01:38:17;;;;;;;1.80;1.52;;;14.70;88.20;;;;;;5030003;28;20040;-64
2021/08/07 01:40:43;;;;;;;1.75;1.65;;;14.70;87.70;;;;;;5033433;28;20034;-64
2021/08/07 01:43:10;;;;;;;2.20;1.70;;;14.70;89.10;;;;;;5036653;28;20481;-64
2021/08/07 01:45:36;;;;;;;3.00;1.88;;;14.60;88.30;;;;;;5035990;28;20355;-64
2021/08/07 01:48:12;;;;;;;1.75;1.65;;;14.60;88.60;;;;;;5032619;28;20099;-64
2021/08/07 01:50:44;;;;;;;3.33;2.13;;;14.60;88.90;;;;;;5021022;28;20112;-64
2021/08/07 01:53:13;;;;;;;2.72;2.03;;;14.50;89.10;;;;;;5029340;28;20025;-64
2021/08/07 01:56:01;;;;;;;2.67;1.88;;;14.60;89.00;;;;;;5030225;28;20037;-64
2021/08/07 01:58:33;;;;;;;3.05;1.85;;;14.60;88.90;;;;;;5044150;28;20496;-64
2021/08/07 02:01:00;;;;;;;2.20;1.90;;;14.60;88.50;;;;;;5033992;28;20493;-64
2021/08/07 02:03:30;;;;;;;2.50;1.83;;;14.60;88.20;;;;;;5031885;28;20073;-64
2021/08/07 02:05:56;;;;;;;2.00;1.80;;;14.60;88.00;;;;;;5038100;28;20028;-64
2021/08/07 02:08:21;;;;;;;2.13;1.92;;;14.60;88.30;;;;;;5033484;28;20738;-64
2021/08/07 02:10:50;;;;;;;2.30;1.83;;;14.60;88.20;;;;;;5032384;28;20033;-64
2021/08/07 02:13:16;;;;;;;;;;;14.50;88.90;;;;;;5034933;28;20025;-64
2021/08/07 02:15:42;;;;;;;2.05;1.60;;;14.50;88.80;;;;;;5033458;28;19913;-64
2021/08/07 02:18:10;;;;;;;3.38;1.67;;;14.50;88.60;;;;;;5034502;28;20048;-64
2021/08/07 02:20:36;;;;;;;1.77;1.30;;;14.50;88.60;;;;;;5037303;28;20052;-64
2021/08/07 02:23:01;;;;;;;2.03;1.70;;;14.60;88.70;;;;;;5033357;28;20072;-64
2021/08/07 02:25:27;;;;;;;2.00;1.67;;;14.40;89.40;;;;;;5032073;28;20033;-64
2021/08/07 02:27:53;;;;;;;2.03;1.65;;;14.40;89.20;;;;;;5031340;28;20031;-64
2021/08/07 02:30:19;;;;;;;1.40;1.27;;;14.40;89.60;;;;;;5040986;28;20458;-64
2021/08/07 02:32:45;;;;;;;3.05;1.48;;;14.30;89.30;;;;;;5032096;28;20079;-64
2021/08/07 02:35:12;;;;;;;2.97;1.50;;;14.30;89.50;;;;;;5033610;28;20026;-64
2021/08/07 02:37:39;;;;;;;4.88;1.60;;;14.30;89.50;;;;;;5035081;28;20028;-64
2021/08/07 02:40:08;;;;;;;5.25;1.90;;;14.30;89.80;;;;;;5036666;28;20834;-64
2021/08/07 02:42:34;;;;;;;4.18;1.65;;;14.20;89.90;;;;;;5021354;28;20039;-64
2021/08/07 02:45:01;;;;;;;4.00;1.65;;;14.30;89.60;;;;;;5038820;28;20083;-64
2021/08/07 02:47:27;;;;;;;3.63;1.75;;;14.40;89.40;;;;;;5033015;28;20029;-64
2021/08/07 02:49:53;;;;;;;2.08;1.80;;;14.40;89.60;;;;;;5035373;28;20025;-64
2021/08/07 02:52:19;;;;;;;5.07;2.28;;;14.40;89.60;;;;;;5033680;28;20029;-64
2021/08/07 02:54:45;;;;;;;2.13;1.80;;;14.40;89.50;;;;;;5032736;28;20083;-64
2021/08/07 02:57:11;;;;;;;1.83;1.65;;;14.40;89.80;;;;;;5032488;28;20109;-64
2021/08/07 02:59:38;;;;;;;2.13;1.67;;;14.30;90.20;;;;;;5027687;28;20043;-64
2021/08/07 03:02:03;;;;;;;3.38;1.60;;;14.10;90.20;;;;;;5029820;28;20854;-64
2021/08/07 03:04:29;;;;;;;2.80;1.63;;;14.10;90.30;;;;;;5029061;28;20149;-64
2021/08/07 03:06:55;;;;;;;1.80;1.70;;;14.10;90.20;;;;;;5028600;28;20053;-64
2021/08/07 03:09:20;;;;;;;2.58;1.65;;;14.10;90.20;;;;;;5031520;28;20083;-64
2021/08/07 03:11:46;;;;;;;2.97;1.58;;;14.10;90.40;;;;;;5040842;28;20444;-64
2021/08/07 03:14:12;;;;;;;1.65;1.48;;;13.90;90.70;;;;;;5032111;28;20021;-64
2021/08/07 03:16:38;;;;;;;5.05;1.50;;;13.90;90.50;;;;;;5035729;28;20677;-64
2021/08/07 03:19:04;;;;;;;2.08;1.75;;;13.80;90.70;;;;;;5031510;28;20033;-63
2021/08/07 03:21:30;;;;;;;1.52;1.42;;;13.90;90.50;;;;;;5030581;28;20041;-64
2021/08/07 03:23:56;;;;;;;3.03;1.63;;;14.00;90.20;;;;;;5021648;28;20033;-64
2021/08/07 03:26:23;;;;;;;1.45;1.30;;;13.90;88.90;;;;;;5032929;28;20389;-64
2021/08/07 03:28:49;;;;;;;4.97;1.80;;;13.90;88.60;;;;;;5038991;28;20469;-64
2021/08/07 03:31:15;;;;;;;2.55;1.73;;;13.90;89.60;;;;;;5030957;28;20044;-64
2021/08/07 03:33:40;;;;;;;2.80;1.70;;;13.80;89.40;;;;;;5021444;28;20025;-64
2021/08/07 03:36:06;;;;;;;1.77;1.60;;;13.70;90.20;;;;;;5033564;28;20022;-64
2021/08/07 03:38:32;;;;;;;3.72;2.00;;;13.70;90.20;;;;;;5035379;28;20116;-64
2021/08/07 03:40:58;;;;;;;2.20;1.70;;;13.70;90.10;;;;;;5033948;28;20029;-64
2021/08/07 03:43:23;;;;;;;4.25;1.90;;;13.70;90.40;;;;;;5030640;28;20076;-64
2021/08/07 03:45:49;;;;;;;2.47;1.58;;;13.70;90.20;;;;;;5034346;28;20053;-64
2021/08/07 03:48:15;;;;;;;1.73;1.63;;;13.80;90.20;;;;;;5030054;28;20092;-64
2021/08/07 03:50:41;;;;;;;2.70;1.88;;;13.60;90.20;;;;;;5029861;28;20032;-64
2021/08/07 03:53:06;;;;;;;2.40;1.65;;;13.50;90.50;;;;;;5034454;28;20032;-64
2021/08/07 03:55:32;;;;;;;1.50;1.40;;;13.40;90.60;;;;;;5026343;28;20052;-64
2021/08/07 03:57:59;;;;;;;3.63;1.60;;;13.50;90.60;;;;;;5030067;28;20079;-64
2021/08/07 04:00:30;;;;;;;2.90;1.67;;;13.50;90.90;;;;;;5033886;28;20020;-63
2021/08/07 04:02:56;;;;;;;2.83;1.55;;;13.50;90.90;;;;;;5033813;28;20021;-63
2021/08/07 04:05:22;;;;;;;2.17;1.98;;;13.40;91.10;;;;;;5031850;28;20048;-64
2021/08/07 04:07:48;;;;;;;1.98;1.70;;;13.40;91.10;;;;;;5029410;28;20033;-64
2021/08/07 04:10:14;;;;;;;1.95;1.70;;;13.50;90.50;;;;;;5031687;28;20021;-64
2021/08/07 04:12:40;;;;;;;1.42;1.33;;;13.50;90.00;;;;;;5033867;28;20111;-64
2021/08/07 04:15:07;;;;;;;2.45;1.50;;;13.60;89.80;;;;;;5023999;28;20159;-63
2021/08/07 04:17:36;;;;;;;2.25;1.50;;;13.60;89.60;;;;;;5017066;28;20037;-64
2021/08/07 04:20:03;;;;;;;1.95;1.42;;;13.70;89.80;;;;;;5029552;28;20025;-64
2021/08/07 04:22:28;;;;;;;1.83;1.40;;;13.70;89.90;;;;;;5030632;28;20080;-64
2021/08/07 04:24:54;;;;;;;2.20;1.60;;;13.70;89.90;;;;;;5029871;28;20486;-64
2021/08/07 04:27:20;;;;;;;2.05;1.58;;;13.70;90.00;;;;;;5030660;28;20028;-64
2021/08/07 04:29:47;;;;;;;1.88;1.55;;;13.80;90.00;;;;;;5030948;28;20022;-64
2021/08/07 04:32:13;;;;;;;2.50;1.40;;;13.80;90.00;;;;;;4993788;28;20738;-64
2021/08/07 04:34:39;;;;;;;2.97;1.73;;;13.90;90.10;;;;;;5009603;28;20041;-64
2021/08/07 04:37:05;;;;;;;2.15;1.65;;;13.90;90.30;;;;;;5010585;28;20041;-64
2021/08/07 04:39:30;;;;;;;2.63;1.48;;;13.90;90.50;;;;;;5015394;28;20054;-64
2021/08/07 04:41:56;;;;;;;2.03;1.30;;;13.90;90.50;;;;;;5008641;28;20029;-63
2021/08/07 04:44:22;;;;;;;1.58;1.48;;;13.90;90.80;;;;;;5009474;28;20034;-64
2021/08/07 04:46:47;;;;;;;2.28;1.58;;;13.90;90.90;;;;;;5005627;28;20087;-64
2021/08/07 04:49:13;;;;;;;2.38;1.67;;;13.80;91.10;;;;;;5010461;28;20037;-64
2021/08/07 04:51:38;;;;;;;2.40;1.92;;;13.80;91.30;;;;;;5010784;28;20087;-64
2021/08/07 04:54:04;;;;;;;2.88;1.60;;;13.80;91.30;;;;;;5009830;28;20030;-64
2021/08/07 04:56:31;;;;;;;2.30;2.00;;;13.80;91.40;;;;;;5009216;28;20034;-64
2021/08/07 04:58:56;;;;;;;2.25;1.58;;;13.80;91.30;;;;;;5009814;28;20455;-65
2021/08/07 05:01:22;;;;;;;3.42;3.13;;;13.80;91.60;;;;;;5011163;28;20112;-64
2021/08/07 05:03:47;;;;;;;3.20;2.00;;;13.80;91.70;;;;;;5010397;28;20058;-64
2021/08/07 05:06:13;;;;;;;3.17;2.10;;;13.80;91.90;;;;;;5009912;28;20550;-64
2021/08/07 05:08:39;;;;;;;3.42;2.30;;;13.90;91.80;;;;;;5006704;28;20022;-64
2021/08/07 05:11:05;;;;;;;3.33;2.08;;;13.90;91.70;;;;;;5010286;28;20425;-64
2021/08/07 05:13:32;;;;;;;2.53;1.88;;;14.00;91.70;;;;;;5009686;28;20124;-64
2021/08/07 05:15:59;;;;;;;6.57;1.93;;;14.00;92.00;;;;;;5007221;28;20022;-64
2021/08/07 05:18:25;;;;;;;2.50;2.10;;;14.00;92.00;;;;;;4993330;28;20034;-64
2021/08/07 05:20:51;;;;;;;2.55;2.13;;;14.00;92.40;;;;;;4991264;28;20410;-64
2021/08/07 05:23:16;;;;;;;2.67;2.05;;;14.00;92.40;;;;;;5006101;28;20256;-64
2021/08/07 05:25:42;;;;;;;3.53;2.00;;;14.00;92.30;;;;;;5003958;28;20030;-64
2021/08/07 05:28:07;;;;;;;2.13;1.92;;;14.10;92.10;;;;;;5010174;28;20386;-64
2021/08/07 05:30:33;;;;;;;2.80;1.98;;;14.20;92.10;;;;;;5013415;28;20041;-64
2021/08/07 05:32:59;;;;;;;3.60;2.35;;;14.30;91.80;;;;;;5013699;28;20087;-64
2021/08/07 05:35:24;;;;;;;3.88;2.33;;;14.30;91.90;;;;;;5015624;28;20030;-66
2021/08/07 05:37:50;;;;;;;3.15;2.00;;;14.40;91.80;;;;;;5010319;28;20506;-64
2021/08/07 05:40:15;;;;;;;3.17;2.05;;;14.50;91.50;;;;;;5008626;28;20486;-64
2021/08/07 05:42:41;;;;;;;2.08;1.95;;;14.60;91.60;;;;;;5009792;28;20505;-64
2021/08/07 05:45:08;;;;;;;3.15;2.03;;;14.60;91.50;;;;;;5014041;28;20398;-64
2021/08/07 05:47:34;;;;;;;3.33;2.00;;;14.70;91.30;;;;;;5014918;28;20029;-64
2021/08/07 05:49:59;;;;;;;4.20;2.05;;;14.70;91.30;;;;;;5012442;28;20034;-64
2021/08/07 05:52:27;;;;;;;3.30;2.00;;;14.80;91.10;;;;;;5007863;28;20026;-64
2021/08/07 05:54:52;;;;;;;2.22;1.98;;;14.90;91.10;;;;;;5007548;28;20218;-64
2021/08/07 05:57:18;;;;;;;2.13;1.85;;;15.00;91.00;;;;;;5010316;28;20037;-64
2021/08/07 05:59:44;;;;;;;3.88;2.15;;;15.00;91.00;;;;;;5012490;28;20034;-65
2021/08/07 06:02:10;;;;;;;2.05;1.80;;;15.10;90.70;;;;;;5008506;28;20161;-64
2021/08/07 06:04:36;;;;;;;2.30;2.10;;;15.20;90.70;;;;;;5026563;28;20116;-64
2021/08/07 06:07:01;;;;;;;7.22;2.15;;;15.20;90.70;;;;;;5010374;28;20094;-65
2021/08/07 06:09:27;;;;;;;4.63;2.10;;;15.20;90.50;;;;;;5011844;28;20525;-64
2021/08/07 06:11:53;;;;;;;3.00;1.90;;;15.30;90.80;;;;;;5012447;28;20074;-64
2021/08/07 06:14:19;;;;;;;6.03;2.30;;;15.40;90.90;;;;;;5008272;28;20498;-64
2021/08/07 06:16:44;;;;;;;3.80;2.40;;;15.50;91.00;;;;;;5009393;28;20038;-65
2021/08/07 06:19:10;;;;;;;4.30;2.47;;;15.50;91.20;;;;;;5010113;28;20034;-64
2021/08/07 06:21:35;;;;;;;3.03;2.38;;;15.60;91.30;;;;;;5014413;28;20022;-64
2021/08/07 06:24:01;;;;;;;5.50;2.75;;;15.70;91.20;;;;;;5012411;28;20042;-64
2021/08/07 06:26:28;;;;;;;4.78;2.35;;;15.80;91.80;;;;;;5014213;28;20437;-65
2021/08/07 06:28:54;;;;;;;3.63;2.67;;;15.90;91.70;;;;;;5016763;28;20025;-64
2021/08/07 06:31:19;;;;;;;3.22;2.47;;;16.00;91.60;;;;;;5027244;28;20084;-64
2021/08/07 06:33:46;;;;;;;4.05;2.60;;;16.10;91.30;;;;;;5014128;28;20145;-64
2021/08/07 06:36:12;;;;;;;5.45;2.28;;;16.20;91.00;;;;;;5015951;28;20064;-64
2021/08/07 06:38:38;;;;;;;3.72;2.65;;;16.30;91.00;;;;;;5011991;28;20033;-64
2021/08/07 06:41:04;;;;;;;3.00;2.30;;;16.40;91.00;;;;;;5011410;28;20033;-64
2021/08/07 06:43:30;;;;;;;3.78;2.35;;;16.50;90.50;;;;;;5012397;28;20034;-64
2021/08/07 06:45:56;;;;;;;5.05;2.95;;;16.60;90.50;;;;;;5009676;28;20034;-64
2021/08/07 06:48:21;;;;;;;3.22;2.72;;;16.70;90.50;;;;;;5009429;28;20080;-64
2021/08/07 06:50:47;;;;;;;5.05;2.83;;;16.80;90.40;;;;;;5011891;28;20053;-65
2021/08/07 06:53:13;;;;;;;3.83;2.83;;;16.90;90.40;;;;;;5012187;28;20412;-65
2021/08/07 06:55:39;;;;;;;4.05;2.33;;;17.10;90.60;;;;;;5011757;28;20042;-64
2021/08/07 06:58:04;;;;;;;4.35;2.80;;;17.30;90.30;;;;;;5006790;28;20526;-64
2021/08/07 07:00:30;;;;;;;8.57;3.83;;;17.50;90.10;;;;;;5010098;28;20060;-64
2021/08/07 07:02:56;;;;;;;4.40;2.50;;;17.60;90.50;;;;;;5012211;28;20053;-64
2021/08/07 07:05:22;;;;;;;2.67;2.20;;;17.80;90.30;;;;;;5011386;28;20488;-64
2021/08/07 07:07:47;;;;;;;2.75;1.90;;;17.90;88.20;;;;;;5009459;28;20041;-64
2021/08/07 07:10:14;;;;;;;4.95;3.15;;;17.90;88.00;;;;;;5007702;28;20049;-65
2021/08/07 07:12:41;;;;;;;3.55;2.10;;;18.00;86.90;;;;;;5007852;28;20724;-64
2021/08/07 07:15:07;;;;;;;2.75;2.20;;;18.20;86.80;;;;;;5019391;28;22078;-64
2021/08/07 07:17:33;;;;;;;2.92;2.17;;;18.30;86.30;;;;;;5005818;28;20046;-64
2021/08/07 07:20:00;;;;;;;3.67;2.08;;;18.50;83.30;;;;;;5005596;28;20179;-64
2021/08/07 07:22:26;;;;;;;5.00;2.00;;;18.60;80.60;;;;;;5023951;28;20037;-64
2021/08/07 07:24:51;;;;;;;6.20;1.98;;;18.60;79.10;;;;;;5005152;28;20033;-65
2021/08/07 07:27:17;;;;;;;3.33;1.80;;;18.70;80.70;;;;;;5007838;28;20471;-64
2021/08/07 07:29:43;;;;;;;2.63;1.88;;;18.60;81.20;;;;;;5007786;28;20029;-67
2021/08/07 07:32:09;;;;;;;3.13;2.00;;;18.60;81.50;;;;;;5008931;28;20156;-64
2021/08/07 07:34:38;;;;;;;4.15;2.00;;;18.70;81.90;;;;;;5012500;28;20030;-64
2021/08/07 07:37:04;;;;;;;4.70;1.90;;;18.90;81.80;;;;;;5008786;28;20379;-64
2021/08/07 07:39:30;;;;;;;2.47;1.90;;;18.90;79.80;;;;;;5006567;28;20037;-64
2021/08/07 07:41:56;;;;;;;2.28;1.83;;;19.00;80.40;;;;;;5007235;28;20041;-64
2021/08/07 07:44:22;;;;;;;1.80;1.60;;;19.00;80.00;;;;;;5005806;28;20498;-64
2021/08/07 07:46:47;;;;;;;3.50;2.20;;;19.00;79.10;;;;;;5016451;28;20026;-65
2021/08/07 07:49:13;;;;;;;5.78;3.63;;;19.10;79.30;;;;;;5008156;28;20706;-65
2021/08/07 07:51:39;;;;;;;3.47;1.85;;;19.20;80.30;;;;;;5002588;28;20506;-64
2021/08/07 07:54:04;;;;;;;2.63;1.83;;;19.40;80.80;;;;;;5008287;28;20022;-65
2021/08/07 07:56:30;;;;;;;3.80;1.80;;;19.50;78.30;;;;;;5007878;28;20026;-65
2021/08/07 07:58:56;;;;;;;5.25;2.05;;;19.50;79.00;;;;;;5010178;28;20393;-65
2021/08/07 08:01:22;;;;;;;4.20;2.22;;;19.50;78.40;;;;;;5022864;28;20038;-64
2021/08/07 08:03:47;;;;;;;3.10;1.73;;;19.60;77.80;;;;;;5003337;28;20125;-65
2021/08/07 08:06:13;;;;;;;2.83;1.80;;;19.70;78.50;;;;;;5008739;28;20034;-64
2021/08/07 08:08:39;;;;;;;3.10;2.03;;;19.90;79.70;;;;;;5005626;28;20105;-64
2021/08/07 08:11:04;;;;;;;2.95;1.77;;;20.10;77.50;;;;;;5023436;28;20037;-65
2021/08/07 08:13:30;;;;;;;2.47;2.00;;;20.10;74.20;;;;;;5008624;28;20072;-64
2021/08/07 08:15:56;;;;;;;2.05;1.90;;;20.20;73.90;;;;;;5005444;28;20113;-64
2021/08/07 08:18:22;;;;;;;2.45;1.75;;;20.20;74.50;;;;;;5007674;28;20052;-64
2021/08/07 08:20:48;;;;;;;4.05;1.88;;;20.30;75.00;;;;;;5007274;28;20026;-65
2021/08/07 08:23:13;;;;;;;2.78;2.00;;;20.30;75.20;;;;;;5008467;28;20100;-64
2021/08/07 08:25:39;;;;;;;2.58;1.70;;;20.40;75.00;;;;;;5022390;28;20483;-64
2021/08/07 08:28:06;;;;;;;1.77;1.60;;;20.40;74.20;;;;;;5011248;28;20061;-65
2021/08/07 08:30:32;;;;;;;2.15;1.80;;;20.40;73.90;;;;;;5010778;28;20042;-65
2021/08/07 08:32:58;;;;;;;2.15;1.67;;;20.40;73.80;;;;;;5011163;28;20104;-65
2021/08/07 08:35:24;;;;;;;2.08;1.60;;;20.40;74.40;;;;;;5009585;28;20030;-65
2021/08/07 08:37:49;;;;;;;6.85;2.75;;;20.40;74.10;;;;;;5010637;28;20037;-65
2021/08/07 08:40:15;;;;;;;6.38;2.17;;;20.30;73.50;;;;;;5010708;28;20034;-64
2021/08/07 08:42:42;;;;;;;3.25;1.75;;;20.40;74.80;;;;;;5011245;28;20029;-64
2021/08/07 08:45:08;;;;;;;2.95;1.95;;;20.40;75.10;;;;;;5024401;28;20029;-64
2021/08/07 08:47:36;;;;;;;2.22;1.90;;;20.50;74.60;;;;;;5009707;28;20053;-64
2021/08/07 08:50:02;;;;;;;3.53;1.80;;;20.50;74.40;;;;;;5012972;28;20076;-64
2021/08/07 08:52:29;;;;;;;3.03;1.75;;;20.60;75.10;;;;;;5009180;28;20030;-64
2021/08/07 08:54:55;;;;;;;2.87;1.80;;;20.70;74.70;;;;;;5008745;28;20080;-65
2021/08/07 08:57:22;;;;;;;2.92;1.88;;;20.70;75.90;;;;;;5006092;28;20121;-64
2021/08/07 08:59:48;;;;;;;5.43;2.38;;;20.80;74.80;;;;;;5014202;28;20084;-65
2021/08/07 09:02:13;;;;;;;11.23;2.95;;;20.90;74.80;;;;;;5008172;28;20491;-64
2021/08/07 09:04:39;;;;;;;1.92;1.75;;;20.90;73.10;;;;;;5013846;28;20056;-65
2021/08/07 09:07:05;;;;;;;3.85;1.80;;;20.90;74.20;;;;;;5012182;28;20470;-64
2021/08/07 09:09:42;;;;;;;2.20;2.00;;;20.90;73.20;;;;;;5012050;28;20030;-65
2021/08/07 09:12:10;;;;;;;3.42;2.05;;;20.90;74.60;;;;;;5010090;28;20109;-65
2021/08/07 09:14:43;;;;;;;7.45;2.17;;;21.00;73.50;;;;;;5009409;28;20054;-65
2021/08/07 09:17:14;;;;;;;4.60;1.90;;;21.00;73.60;;;;;;5011790;28;20049;-65
2021/08/07 09:19:39;;;;;;;2.83;1.75;;;21.10;73.00;;;;;;5010661;28;20025;-65
2021/08/07 09:22:09;;;;;;;2.38;1.88;;;21.10;72.30;;;;;;5004607;28;20517;-64
2021/08/07 09:24:53;;;;;;;1.70;1.60;;;21.10;71.50;;;;;;5012994;28;20033;-65
2021/08/07 09:27:31;;;;;;;2.15;1.90;;;21.10;72.00;;;;;;5009376;28;20022;-65
2021/08/07 09:29:57;;;;;;;2.13;1.73;;;21.10;72.20;;;;;;5003692;28;20038;-65
2021/08/07 09:32:23;;;;;;;1.95;1.75;;;21.20;72.30;;;;;;5012228;28;20044;-65
2021/08/07 09:35:06;;;;;;;2.25;1.65;;;21.20;72.30;;;;;;5011066;28;20037;-65
2021/08/07 09:37:32;;;;;;;2.88;2.00;;;21.30;71.70;;;;;;5011998;28;20470;-65
2021/08/07 09:40:03;;;;;;;2.75;1.70;;;21.50;70.60;;;;;;5013080;28;20153;-65
2021/08/07 09:42:31;;;;;;;1.90;1.80;;;21.60;72.00;;;;;;5009231;28;20026;-65
2021/08/07 09:45:09;;;;;;;2.53;2.10;;;21.70;71.40;;;;;;5008213;28;20104;-65
2021/08/07 09:47:41;;;;;;;2.40;1.60;;;21.70;72.80;;;;;;5012043;28;20398;-65
2021/08/07 09:50:25;;;;;;;2.17;1.50;;;21.80;70.30;;;;;;5010873;28;20597;-62
2021/08/07 09:52:50;;;;;;;3.15;1.55;;;21.70;69.10;;;;;;5010388;28;20083;-61
2021/08/07 09:55:16;;;;;;;3.35;1.70;;;21.70;69.90;;;;;;5022995;28;20048;-62
2021/08/07 09:57:42;;;;;;;3.38;2.20;;;21.80;65.90;;;;;;5011088;28;20195;-62
2021/08/07 10:00:09;;;;;;;3.13;1.70;;;21.80;68.70;;;;;;5012320;28;20025;-62
2021/08/07 10:02:36;;;;;;;4.07;1.85;;;21.80;69.60;;;;;;5012310;28;20034;-63
2021/08/07 10:05:05;;;;;;;4.85;2.03;;;21.80;70.50;;;;;;5010948;28;20136;-63
2021/08/07 10:07:31;;;;;;;6.25;1.92;;;21.90;71.90;;;;;;5012343;28;20033;-64
2021/08/07 10:09:57;;;;;;;5.22;2.10;;;22.10;71.80;;;;;;5013713;28;20467;-63
2021/08/07 10:12:24;;;;;;;2.47;1.98;;;22.30;71.20;;;;;;5010458;28;20437;-64
2021/08/07 10:14:50;;;;;;;3.33;1.90;;;22.40;69.30;;;;;;5012699;28;20495;-64
2021/08/07 10:17:19;;;;;;;2.15;1.85;;;22.50;65.80;;;;;;5012596;28;20119;-64
2021/08/07 10:19:47;;;;;;;5.60;2.05;;;22.60;69.20;;;;;;5012889;28;20033;-64
2021/08/07 10:22:14;;;;;;;1.80;1.70;;;22.60;68.00;;;;;;5012741;28;20529;-64
2021/08/07 10:24:44;;;;;;;2.13;1.60;;;22.60;66.50;;;;;;5013424;28;20478;-64
2021/08/07 10:27:10;;;;;;;2.03;1.70;;;22.70;67.30;;;;;;5013686;28;20038;-64
2021/08/07 10:29:46;;;;;;;3.67;1.95;;;22.70;67.70;;;;;;5012276;28;20022;-64
2021/08/07 10:32:14;;;;;;;2.60;1.77;;;22.80;68.10;;;;;;5012945;28;20046;-64
2021/08/07 10:34:43;;;;;;;4.15;2.10;;;22.90;68.00;;;;;;5010892;28;20030;-64
2021/08/07 10:37:10;;;;;;;2.67;1.77;;;22.80;66.20;;;;;;5012758;28;20026;-64
2021/08/07 10:39:35;;;;;;;3.40;2.28;;;22.90;65.80;;;;;;5010986;28;20108;-64
2021/08/07 10:42:03;;;;;;;2.67;2.33;;;23.00;66.90;;;;;;5013221;28;20033;-64
2021/08/07 10:44:31;;;;;;;1.90;1.80;;;23.10;65.40;;;;;;5013554;28;20379;-63
2021/08/07 10:46:57;;;;;;;3.88;2.13;;;23.10;66.20;;;;;;5012863;28;20431;-64
2021/08/07 10:49:39;;;;;;;2.47;1.80;;;23.10;67.80;;;;;;5011895;28;20049;-64
2021/08/07 10:52:23;;;;;;;1.95;1.60;;;23.10;66.40;;;;;;5011471;28;20034;-64
2021/08/07 10:54:50;;;;;;;10.25;3.65;;;23.10;64.00;;;;;;5012012;28;20394;-63
2021/08/07 10:57:37;;;;;;;3.75;2.08;;;23.00;63.30;;;;;;5013181;28;20036;-64
2021/08/07 11:00:15;;;;;;;1.50;1.40;;;23.00;65.80;;;;;;5011549;28;20033;-63
2021/08/07 11:02:41;;;;;;;;;;;22.90;64.60;;;;;;5011481;28;20466;-64
2021/08/07 11:05:06;;;;;;;1.60;1.40;;;22.80;64.00;;;;;;5013825;28;19970;-64
2021/08/07 11:07:32;;;;;;;1.88;1.40;;;22.80;63.70;;;;;;5011241;28;20034;-63
2021/08/07 11:10:10;;;;;;;2.00;1.42;;;22.70;62.10;;;;;;5008361;28;20030;-64
2021/08/07 11:12:38;;;;;;;2.22;1.40;;;22.60;63.50;;;;;;5011216;28;20160;-64
2021/08/07 11:15:09;;;;;;;2.65;1.52;;;22.60;64.70;;;;;;5021938;28;20028;-63
2021/08/07 11:17:37;;;;;;;2.35;1.33;;;22.40;60.70;;;;;;5010958;28;20414;-63
2021/08/07 11:20:13;;;;;;;1.55;1.33;;;22.20;61.20;;;;;;5010997;28;20034;-64
2021/08/07 11:22:41;;;;;;;1.75;1.38;;;22.00;62.00;;;;;;5012399;28;20427;-63
2021/08/07 11:25:09;;;;;;;1.92;1.38;;;22.00;63.30;;;;;;5011625;28;20045;-63
2021/08/07 11:27:55;;;;;;;4.25;2.17;;;21.80;63.30;;;;;;5010868;28;20026;-63
2021/08/07 11:30:39;;;;;;;1.70;1.55;;;21.80;64.00;;;;;;5012030;28;20022;-63
2021/08/07 11:33:06;;;;;;;2.50;1.40;;;21.70;63.90;;;;;;5012944;28;20033;-63
2021/08/07 11:35:38;;;;;;;1.30;1.20;;;21.60;63.90;;;;;;5018366;28;20026;-63
2021/08/07 11:38:06;;;;;;;3.70;1.50;;;21.60;65.30;;;;;;5023732;28;20044;-63
2021/08/07 11:41:08;;;;;;;2.00;1.58;;;21.50;65.40;;;;;;5017192;28;20026;-63
2021/08/07 11:43:43;;;;;;;2.13;1.50;;;21.50;65.90;;;;;;4933226;29;20042;-63
2021/08/07 11:46:14;;;;;;;1.85;1.40;;;21.50;67.40;;;;;;5007881;28;20033;-63
2021/08/07 11:48:50;;;;;;;3.30;1.73;;;21.50;68.30;;;;;;5014937;28;20017;-63
2021/08/07 11:51:25;;;;;;;2.03;1.60;;;21.50;69.30;;;;;;5007046;28;20030;-63
2021/08/07 11:53:51;;;;;;;2.72;1.42;;;21.60;67.70;;;;;;5014440;28;20413;-63
2021/08/07 11:56:19;;;;;;;4.38;2.00;;;21.70;66.00;;;;;;5015477;28;20034;-63
2021/08/07 11:58:56;;;;;;;2.35;1.55;;;21.70;67.20;;;;;;5010625;28;20120;-63
2021/08/07 12:01:27;;;;;;;1.95;1.48;;;21.60;66.60;;;;;;5022359;28;20046;-63
2021/08/07 12:03:55;;;;;;;3.70;1.98;;;21.50;66.00;;;;;;5011787;28;20054;-63
2021/08/07 12:06:33;;;;;;;2.35;1.63;;;21.40;65.70;;;;;;5007372;28;20030;-63
2021/08/07 12:09:01;;;;;;;1.67;1.23;;;21.40;63.70;;;;;;5009632;28;20483;-62
2021/08/07 12:11:27;;;;;;;3.67;1.60;;;21.20;62.10;;;;;;5011122;28;20037;-62
2021/08/07 12:13:58;;;;;;;2.78;1.33;;;21.10;63.00;;;;;;5009641;28;20057;-62
2021/08/07 12:16:41;;;;;;;3.38;1.75;;;21.00;63.50;;;;;;5010609;28;20065;-62
2021/08/07 12:19:18;;;;;;;1.70;1.55;;;21.00;61.90;;;;;;5011188;28;20056;-62
2021/08/07 12:21:44;;;;;;;3.85;1.50;;;20.90;63.50;;;;;;5006136;28;20125;-62
2021/08/07 12:24:23;;;;;;;2.40;1.38;;;20.70;65.10;;;;;;5008143;28;20454;-62
2021/08/07 12:26:52;;;;;;;6.25;1.88;;;20.70;66.40;;;;;;5003946;28;20048;-61
2021/08/07 12:29:19;;;;;;;3.50;1.60;;;20.70;66.70;;;;;;5010097;28;20470;-62
2021/08/07 12:31:53;;;;;;;2.55;1.58;;;20.60;66.90;;;;;;5010730;28;20038;-62
2021/08/07 12:34:23;;;;;;;2.08;1.40;;;20.60;67.50;;;;;;5010857;28;20073;-63
2021/08/07 12:36:55;;;;;;;1.58;1.48;;;20.60;67.60;;;;;;5011816;28;20524;-63
2021/08/07 12:39:21;;;;;;;1.92;1.20;;;20.60;66.50;;;;;;5014808;28;20152;-64
2021/08/07 12:41:47;;;;;;;1.83;1.30;;;20.60;67.30;;;;;;5011420;28;20116;-63
2021/08/07 12:44:21;;;;;;;2.72;1.63;;;20.60;67.30;;;;;;5014424;28;20390;-64
2021/08/07 12:46:48;;;;;;;2.55;1.33;;;20.60;69.30;;;;;;5012238;28;20033;-62
2021/08/07 12:49:31;;;;;;;1.50;1.30;;;20.60;65.80;;;;;;5014672;28;20702;-62
2021/08/07 12:52:05;;;;;;;2.40;1.20;;;20.60;65.70;;;;;;5015082;28;20482;-62